sensor_id;sensor_type;location;lat;lon;timestamp;temperature;humidity
16517;DHT22;8371;52.272;9.746;2022-10-16T00:01:48;16.60;65.50
16517;DHT22;8371;52.272;9.746;2022-10-16T00:04:14;16.50;65.70
16517;DHT22;8371;52.272;9.746;2022-10-16T00:06:40;16.50;65.70
16517;DHT22;8371;52.272;9.746;2022-10-16T00:09:06;16.50;65.90
16517;DHT22;8371;52.272;9.746;2022-10-16T00:11:34;16.50;66.10
16517;DHT22;8371;52.272;9.746;2022-10-16T00:14:04;16.50;66.30
16517;DHT22;8371;52.272;9.746;2022-10-16T00:16:30;16.40;66.30
16517;DHT22;8371;52.272;9.746;2022-10-16T00:18:56;16.40;66.40
16517;DHT22;8371;52.272;9.746;2022-10-16T00:21:25;16.40;66.60
16517;DHT22;8371;52.272;9.746;2022-10-16T00:23:53;16.40;66.70
16517;DHT22;8371;52.272;9.746;2022-10-16T00:26:19;16.40;66.80
16517;DHT22;8371;52.272;9.746;2022-10-16T00:28:49;16.40;66.90
16517;DHT22;8371;52.272;9.746;2022-10-16T00:31:16;16.40;66.90
16517;DHT22;8371;52.272;9.746;2022-10-16T00:33:43;16.40;67.00
16517;DHT22;8371;52.272;9.746;2022-10-16T00:36:11;16.30;66.80
16517;DHT22;8371;52.272;9.746;2022-10-16T00:38:38;16.30;66.90
16517;DHT22;8371;52.272;9.746;2022-10-16T00:41:15;16.30;66.90
16517;DHT22;8371;52.272;9.746;2022-10-16T00:43:50;16.30;67.00
16517;DHT22;8371;52.272;9.746;2022-10-16T00:46:22;16.20;67.00
16517;DHT22;8371;52.272;9.746;2022-10-16T00:49:36;16.20;67.90
16517;DHT22;8371;52.272;9.746;2022-10-16T00:51:21;16.20;67.20
16517;DHT22;8371;52.272;9.746;2022-10-16T00:53:48;16.10;67.20
16517;DHT22;8371;52.272;9.746;2022-10-16T00:56:14;16.10;67.30
16517;DHT22;8371;52.272;9.746;2022-10-16T00:58:40;16.10;67.50
16517;DHT22;8371;52.272;9.746;2022-10-16T01:01:06;16.00;67.50
16517;DHT22;8371;52.272;9.746;2022-10-16T01:03:36;16.00;67.60
16517;DHT22;8371;52.272;9.746;2022-10-16T01:06:12;16.00;67.80
16517;DHT22;8371;52.272;9.746;2022-10-16T01:08:45;15.90;67.90
16517;DHT22;8371;52.272;9.746;2022-10-16T01:11:24;15.90;68.00
16517;DHT22;8371;52.272;9.746;2022-10-16T01:13:56;15.90;68.20
16517;DHT22;8371;52.272;9.746;2022-10-16T01:16:39;15.90;68.30
16517;DHT22;8371;52.272;9.746;2022-10-16T01:21:40;15.80;68.50
16517;DHT22;8371;52.272;9.746;2022-10-16T01:24:11;15.80;68.50
16517;DHT22;8371;52.272;9.746;2022-10-16T01:29:18;15.80;68.60
16517;DHT22;8371;52.272;9.746;2022-10-16T01:31:48;15.70;68.60
16517;DHT22;8371;52.272;9.746;2022-10-16T01:34:25;15.70;68.70
16517;DHT22;8371;52.272;9.746;2022-10-16T01:36:53;15.70;68.80
16517;DHT22;8371;52.272;9.746;2022-10-16T01:39:23;15.60;68.80
16517;DHT22;8371;52.272;9.746;2022-10-16T01:41:57;15.60;69.10
16517;DHT22;8371;52.272;9.746;2022-10-16T01:44:31;15.60;70.00
16517;DHT22;8371;52.272;9.746;2022-10-16T01:46:59;15.60;69.60
16517;DHT22;8371;52.272;9.746;2022-10-16T01:49:28;15.60;69.70
16517;DHT22;8371;52.272;9.746;2022-10-16T01:51:57;15.60;69.80
16517;DHT22;8371;52.272;9.746;2022-10-16T01:54:27;15.60;70.00
16517;DHT22;8371;52.272;9.746;2022-10-16T01:56:54;15.60;70.00
16517;DHT22;8371;52.272;9.746;2022-10-16T01:59:24;15.60;70.00
16517;DHT22;8371;52.272;9.746;2022-10-16T02:01:52;15.60;70.10
16517;DHT22;8371;52.272;9.746;2022-10-16T02:04:42;15.60;70.10
16517;DHT22;8371;52.272;9.746;2022-10-16T02:07:07;15.70;70.10
16517;DHT22;8371;52.272;9.746;2022-10-16T02:09:34;15.70;70.00
16517;DHT22;8371;52.272;9.746;2022-10-16T02:14:47;15.60;70.00
16517;DHT22;8371;52.272;9.746;2022-10-16T02:17:15;15.60;69.90
16517;DHT22;8371;52.272;9.746;2022-10-16T02:19:41;15.50;69.90
16517;DHT22;8371;52.272;9.746;2022-10-16T02:22:10;15.50;70.00
16517;DHT22;8371;52.272;9.746;2022-10-16T02:25:25;15.50;70.10
16517;DHT22;8371;52.272;9.746;2022-10-16T02:27:15;15.50;70.10
16517;DHT22;8371;52.272;9.746;2022-10-16T02:29:46;15.40;70.10
16517;DHT22;8371;52.272;9.746;2022-10-16T02:32:16;15.40;70.10
16517;DHT22;8371;52.272;9.746;2022-10-16T02:34:44;15.40;70.20
16517;DHT22;8371;52.272;9.746;2022-10-16T02:37:11;15.30;70.20
16517;DHT22;8371;52.272;9.746;2022-10-16T02:39:38;15.30;70.30
16517;DHT22;8371;52.272;9.746;2022-10-16T02:42:04;15.20;70.40
16517;DHT22;8371;52.272;9.746;2022-10-16T02:44:30;15.20;70.30
16517;DHT22;8371;52.272;9.746;2022-10-16T02:46:56;15.20;70.40
16517;DHT22;8371;52.272;9.746;2022-10-16T02:49:21;15.10;70.50
16517;DHT22;8371;52.272;9.746;2022-10-16T02:51:47;15.10;70.80
16517;DHT22;8371;52.272;9.746;2022-10-16T02:54:13;15.00;71.00
16517;DHT22;8371;52.272;9.746;2022-10-16T02:56:38;15.00;71.20
16517;DHT22;8371;52.272;9.746;2022-10-16T02:59:04;15.00;71.30
16517;DHT22;8371;52.272;9.746;2022-10-16T03:01:30;15.00;71.40
16517;DHT22;8371;52.272;9.746;2022-10-16T03:03:56;15.00;71.60
16517;DHT22;8371;52.272;9.746;2022-10-16T03:06:22;15.00;71.60
16517;DHT22;8371;52.272;9.746;2022-10-16T03:08:47;15.00;71.70
16517;DHT22;8371;52.272;9.746;2022-10-16T03:11:13;15.00;71.80
16517;DHT22;8371;52.272;9.746;2022-10-16T03:13:39;15.00;71.80
16517;DHT22;8371;52.272;9.746;2022-10-16T03:16:04;15.00;71.90
16517;DHT22;8371;52.272;9.746;2022-10-16T03:18:30;15.00;72.00
16517;DHT22;8371;52.272;9.746;2022-10-16T03:20:56;15.10;72.20
16517;DHT22;8371;52.272;9.746;2022-10-16T03:23:21;15.10;72.20
16517;DHT22;8371;52.272;9.746;2022-10-16T03:25:47;15.10;72.30
16517;DHT22;8371;52.272;9.746;2022-10-16T03:28:13;15.10;72.20
16517;DHT22;8371;52.272;9.746;2022-10-16T03:30:38;15.10;72.20
16517;DHT22;8371;52.272;9.746;2022-10-16T03:33:05;15.10;72.20
16517;DHT22;8371;52.272;9.746;2022-10-16T03:35:31;15.10;72.30
16517;DHT22;8371;52.272;9.746;2022-10-16T03:37:57;15.10;72.20
16517;DHT22;8371;52.272;9.746;2022-10-16T03:40:23;15.10;72.30
16517;DHT22;8371;52.272;9.746;2022-10-16T03:42:49;15.10;72.30
16517;DHT22;8371;52.272;9.746;2022-10-16T03:45:14;15.10;72.10
16517;DHT22;8371;52.272;9.746;2022-10-16T03:47:40;15.00;72.30
16517;DHT22;8371;52.272;9.746;2022-10-16T03:50:07;15.00;72.30
16517;DHT22;8371;52.272;9.746;2022-10-16T03:52:32;15.00;72.40
16517;DHT22;8371;52.272;9.746;2022-10-16T03:54:58;15.00;72.40
16517;DHT22;8371;52.272;9.746;2022-10-16T03:57:24;15.00;72.40
16517;DHT22;8371;52.272;9.746;2022-10-16T03:59:49;15.00;72.40
16517;DHT22;8371;52.272;9.746;2022-10-16T04:02:16;15.00;72.40
16517;DHT22;8371;52.272;9.746;2022-10-16T04:04:42;15.00;72.40
16517;DHT22;8371;52.272;9.746;2022-10-16T04:07:07;14.90;72.40
16517;DHT22;8371;52.272;9.746;2022-10-16T04:09:33;14.90;72.50
16517;DHT22;8371;52.272;9.746;2022-10-16T04:11:59;14.90;72.50
16517;DHT22;8371;52.272;9.746;2022-10-16T04:14:24;14.90;72.60
16517;DHT22;8371;52.272;9.746;2022-10-16T04:16:50;14.90;72.70
16517;DHT22;8371;52.272;9.746;2022-10-16T04:19:16;14.90;72.80
16517;DHT22;8371;52.272;9.746;2022-10-16T04:21:41;14.80;72.80
16517;DHT22;8371;52.272;9.746;2022-10-16T04:24:07;14.80;72.90
16517;DHT22;8371;52.272;9.746;2022-10-16T04:26:33;14.80;73.10
16517;DHT22;8371;52.272;9.746;2022-10-16T04:28:59;14.80;73.10
16517;DHT22;8371;52.272;9.746;2022-10-16T04:31:24;14.80;73.10
16517;DHT22;8371;52.272;9.746;2022-10-16T04:33:50;14.80;73.20
16517;DHT22;8371;52.272;9.746;2022-10-16T04:36:16;14.80;73.30
16517;DHT22;8371;52.272;9.746;2022-10-16T04:38:41;14.80;73.40
16517;DHT22;8371;52.272;9.746;2022-10-16T04:41:07;14.80;73.40
16517;DHT22;8371;52.272;9.746;2022-10-16T04:43:33;14.80;73.60
16517;DHT22;8371;52.272;9.746;2022-10-16T04:45:59;14.80;73.60
16517;DHT22;8371;52.272;9.746;2022-10-16T04:48:26;14.90;73.80
16517;DHT22;8371;52.272;9.746;2022-10-16T04:50:51;14.90;73.90
16517;DHT22;8371;52.272;9.746;2022-10-16T04:53:17;14.90;73.90
16517;DHT22;8371;52.272;9.746;2022-10-16T04:55:43;14.90;74.20
16517;DHT22;8371;52.272;9.746;2022-10-16T04:58:09;15.00;74.20
16517;DHT22;8371;52.272;9.746;2022-10-16T05:00:35;15.00;75.00
16517;DHT22;8371;52.272;9.746;2022-10-16T05:03:01;15.00;74.20
16517;DHT22;8371;52.272;9.746;2022-10-16T05:05:29;15.10;75.10
16517;DHT22;8371;52.272;9.746;2022-10-16T05:07:55;15.10;74.10
16517;DHT22;8371;52.272;9.746;2022-10-16T05:10:20;15.10;74.20
16517;DHT22;8371;52.272;9.746;2022-10-16T05:12:46;15.10;74.80
16517;DHT22;8371;52.272;9.746;2022-10-16T05:15:12;15.20;74.20
16517;DHT22;8371;52.272;9.746;2022-10-16T05:17:38;15.20;74.30
16517;DHT22;8371;52.272;9.746;2022-10-16T05:20:04;15.30;74.30
16517;DHT22;8371;52.272;9.746;2022-10-16T05:22:30;15.20;74.20
16517;DHT22;8371;52.272;9.746;2022-10-16T05:24:55;15.30;74.10
16517;DHT22;8371;52.272;9.746;2022-10-16T05:27:21;15.30;74.10
16517;DHT22;8371;52.272;9.746;2022-10-16T05:29:48;15.30;74.20
16517;DHT22;8371;52.272;9.746;2022-10-16T05:32:15;15.30;74.10
16517;DHT22;8371;52.272;9.746;2022-10-16T05:34:41;15.30;74.10
16517;DHT22;8371;52.272;9.746;2022-10-16T05:37:08;15.30;73.60
16517;DHT22;8371;52.272;9.746;2022-10-16T05:39:34;15.30;74.10
16517;DHT22;8371;52.272;9.746;2022-10-16T05:41:59;15.30;74.20
16517;DHT22;8371;52.272;9.746;2022-10-16T05:44:25;15.30;74.20
16517;DHT22;8371;52.272;9.746;2022-10-16T05:46:51;15.40;74.20
16517;DHT22;8371;52.272;9.746;2022-10-16T05:49:16;15.40;74.40
16517;DHT22;8371;52.272;9.746;2022-10-16T05:51:42;15.40;74.30
16517;DHT22;8371;52.272;9.746;2022-10-16T05:54:08;15.40;74.40
16517;DHT22;8371;52.272;9.746;2022-10-16T05:56:34;15.40;74.30
16517;DHT22;8371;52.272;9.746;2022-10-16T05:58:59;15.40;74.20
16517;DHT22;8371;52.272;9.746;2022-10-16T06:01:25;15.40;74.20
16517;DHT22;8371;52.272;9.746;2022-10-16T06:03:52;15.40;74.40
16517;DHT22;8371;52.272;9.746;2022-10-16T06:06:21;15.40;74.30
16517;DHT22;8371;52.272;9.746;2022-10-16T06:08:49;15.40;74.40
16517;DHT22;8371;52.272;9.746;2022-10-16T06:11:20;15.40;74.40
16517;DHT22;8371;52.272;9.746;2022-10-16T06:13:53;15.40;74.40
16517;DHT22;8371;52.272;9.746;2022-10-16T06:16:20;15.40;74.40
16517;DHT22;8371;52.272;9.746;2022-10-16T06:18:46;15.40;74.40
16517;DHT22;8371;52.272;9.746;2022-10-16T06:21:16;15.40;74.50
16517;DHT22;8371;52.272;9.746;2022-10-16T06:23:42;15.40;74.50
16517;DHT22;8371;52.272;9.746;2022-10-16T06:26:11;15.50;74.70
16517;DHT22;8371;52.272;9.746;2022-10-16T06:28:37;15.40;74.50
16517;DHT22;8371;52.272;9.746;2022-10-16T06:31:05;15.50;74.70
16517;DHT22;8371;52.272;9.746;2022-10-16T06:33:31;15.50;74.80
16517;DHT22;8371;52.272;9.746;2022-10-16T06:36:08;15.50;74.80
16517;DHT22;8371;52.272;9.746;2022-10-16T06:38:35;15.60;74.90
16517;DHT22;8371;52.272;9.746;2022-10-16T06:41:02;15.60;74.90
16517;DHT22;8371;52.272;9.746;2022-10-16T06:43:29;15.70;75.00
16517;DHT22;8371;52.272;9.746;2022-10-16T06:45:58;15.70;75.10
16517;DHT22;8371;52.272;9.746;2022-10-16T06:48:25;15.80;75.20
16517;DHT22;8371;52.272;9.746;2022-10-16T06:53:23;15.90;75.10
16517;DHT22;8371;52.272;9.746;2022-10-16T06:55:49;15.90;75.00
16517;DHT22;8371;52.272;9.746;2022-10-16T06:58:15;16.00;75.00
16517;DHT22;8371;52.272;9.746;2022-10-16T07:00:40;16.00;75.00
16517;DHT22;8371;52.272;9.746;2022-10-16T07:03:06;16.10;75.10
16517;DHT22;8371;52.272;9.746;2022-10-16T07:05:37;16.20;75.00
16517;DHT22;8371;52.272;9.746;2022-10-16T07:08:03;16.20;75.00
16517;DHT22;8371;52.272;9.746;2022-10-16T07:10:31;16.30;75.10
16517;DHT22;8371;52.272;9.746;2022-10-16T07:12:57;16.40;75.10
16517;DHT22;8371;52.272;9.746;2022-10-16T07:15:24;16.50;75.20
16517;DHT22;8371;52.272;9.746;2022-10-16T07:17:50;16.60;75.20
16517;DHT22;8371;52.272;9.746;2022-10-16T07:20:16;16.60;75.20
16517;DHT22;8371;52.272;9.746;2022-10-16T07:22:41;16.70;75.10
16517;DHT22;8371;52.272;9.746;2022-10-16T07:25:07;16.80;75.10
16517;DHT22;8371;52.272;9.746;2022-10-16T07:27:33;16.90;74.90
16517;DHT22;8371;52.272;9.746;2022-10-16T07:29:59;17.00;74.80
16517;DHT22;8371;52.272;9.746;2022-10-16T07:32:25;17.00;74.60
16517;DHT22;8371;52.272;9.746;2022-10-16T07:34:52;17.10;74.50
16517;DHT22;8371;52.272;9.746;2022-10-16T07:37:17;17.20;74.50
16517;DHT22;8371;52.272;9.746;2022-10-16T07:39:43;17.10;74.20
16517;DHT22;8371;52.272;9.746;2022-10-16T07:42:09;17.30;74.10
16517;DHT22;8371;52.272;9.746;2022-10-16T07:44:35;17.30;74.90
16517;DHT22;8371;52.272;9.746;2022-10-16T07:47:01;17.40;74.30
16517;DHT22;8371;52.272;9.746;2022-10-16T07:49:27;17.50;74.20
16517;DHT22;8371;52.272;9.746;2022-10-16T07:51:53;17.60;74.30
16517;DHT22;8371;52.272;9.746;2022-10-16T07:54:19;17.60;74.10
16517;DHT22;8371;52.272;9.746;2022-10-16T07:56:44;17.70;73.90
16517;DHT22;8371;52.272;9.746;2022-10-16T07:59:13;17.70;73.80
16517;DHT22;8371;52.272;9.746;2022-10-16T08:01:39;17.80;73.60
16517;DHT22;8371;52.272;9.746;2022-10-16T08:04:05;17.90;73.50
16517;DHT22;8371;52.272;9.746;2022-10-16T08:06:35;17.90;73.40
16517;DHT22;8371;52.272;9.746;2022-10-16T08:09:00;18.00;73.50
16517;DHT22;8371;52.272;9.746;2022-10-16T08:11:26;18.10;73.50
16517;DHT22;8371;52.272;9.746;2022-10-16T08:13:52;18.20;73.50
16517;DHT22;8371;52.272;9.746;2022-10-16T08:16:17;18.30;73.40
16517;DHT22;8371;52.272;9.746;2022-10-16T08:18:43;18.30;73.40
16517;DHT22;8371;52.272;9.746;2022-10-16T08:21:14;18.50;73.40
16517;DHT22;8371;52.272;9.746;2022-10-16T08:23:40;18.60;73.20
16517;DHT22;8371;52.272;9.746;2022-10-16T08:26:07;18.70;73.00
16517;DHT22;8371;52.272;9.746;2022-10-16T08:28:34;18.80;72.60
16517;DHT22;8371;52.272;9.746;2022-10-16T08:31:14;18.80;72.30
16517;DHT22;8371;52.272;9.746;2022-10-16T08:33:44;18.90;71.90
16517;DHT22;8371;52.272;9.746;2022-10-16T08:36:11;19.00;71.80
16517;DHT22;8371;52.272;9.746;2022-10-16T08:38:37;19.00;71.50
16517;DHT22;8371;52.272;9.746;2022-10-16T08:47:03;19.20;70.90
16517;DHT22;8371;52.272;9.746;2022-10-16T08:49:30;19.20;70.50
16517;DHT22;8371;52.272;9.746;2022-10-16T08:51:56;19.20;70.50
16517;DHT22;8371;52.272;9.746;2022-10-16T08:54:27;19.20;70.30
16517;DHT22;8371;52.272;9.746;2022-10-16T08:56:55;19.20;70.10
16517;DHT22;8371;52.272;9.746;2022-10-16T08:59:21;19.20;69.80
16517;DHT22;8371;52.272;9.746;2022-10-16T09:01:49;19.20;70.00
16517;DHT22;8371;52.272;9.746;2022-10-16T09:06:58;19.20;70.20
16517;DHT22;8371;52.272;9.746;2022-10-16T09:23:17;19.50;70.20
16517;DHT22;8371;52.272;9.746;2022-10-16T09:25:45;19.50;70.20
16517;DHT22;8371;52.272;9.746;2022-10-16T09:28:13;19.60;70.20
16517;DHT22;8371;52.272;9.746;2022-10-16T09:30:39;19.70;70.20
16517;DHT22;8371;52.272;9.746;2022-10-16T09:33:05;19.80;70.10
16517;DHT22;8371;52.272;9.746;2022-10-16T09:35:43;19.90;70.00
16517;DHT22;8371;52.272;9.746;2022-10-16T09:38:23;20.00;69.90
16517;DHT22;8371;52.272;9.746;2022-10-16T09:40:48;20.20;69.80
16517;DHT22;8371;52.272;9.746;2022-10-16T09:43:25;20.30;69.70
16517;DHT22;8371;52.272;9.746;2022-10-16T09:48:47;20.50;69.20
16517;DHT22;8371;52.272;9.746;2022-10-16T09:51:17;20.70;69.20
16517;DHT22;8371;52.272;9.746;2022-10-16T09:53:45;20.80;68.80
16517;DHT22;8371;52.272;9.746;2022-10-16T09:56:20;21.00;68.50
16517;DHT22;8371;52.272;9.746;2022-10-16T09:58:43;21.10;68.30
16517;DHT22;8371;52.272;9.746;2022-10-16T10:01:13;21.20;68.20
16517;DHT22;8371;52.272;9.746;2022-10-16T10:03:42;21.30;67.70
16517;DHT22;8371;52.272;9.746;2022-10-16T10:06:25;21.40;67.20
16517;DHT22;8371;52.272;9.746;2022-10-16T10:08:57;21.60;67.20
16517;DHT22;8371;52.272;9.746;2022-10-16T10:11:42;21.70;66.90
16517;DHT22;8371;52.272;9.746;2022-10-16T10:24:59;22.20;65.40
16517;DHT22;8371;52.272;9.746;2022-10-16T10:27:35;22.40;65.50
16517;DHT22;8371;52.272;9.746;2022-10-16T10:30:07;22.50;65.50
16517;DHT22;8371;52.272;9.746;2022-10-16T10:32:49;22.70;65.80
16517;DHT22;8371;52.272;9.746;2022-10-16T10:35:18;22.80;64.40
16517;DHT22;8371;52.272;9.746;2022-10-16T10:37:55;22.90;64.10
16517;DHT22;8371;52.272;9.746;2022-10-16T10:43:20;23.20;63.30
16517;DHT22;8371;52.272;9.746;2022-10-16T10:45:47;23.30;62.70
16517;DHT22;8371;52.272;9.746;2022-10-16T10:48:40;23.40;61.80
16517;DHT22;8371;52.272;9.746;2022-10-16T10:51:09;23.50;61.20
16517;DHT22;8371;52.272;9.746;2022-10-16T10:56:36;23.60;60.70
16517;DHT22;8371;52.272;9.746;2022-10-16T10:59:08;23.60;60.70
16517;DHT22;8371;52.272;9.746;2022-10-16T11:01:39;23.70;60.50
16517;DHT22;8371;52.272;9.746;2022-10-16T11:04:29;23.70;60.30
16517;DHT22;8371;52.272;9.746;2022-10-16T11:06:59;23.80;60.00
16517;DHT22;8371;52.272;9.746;2022-10-16T11:09:28;23.90;59.60
16517;DHT22;8371;52.272;9.746;2022-10-16T11:11:58;24.00;59.60
16517;DHT22;8371;52.272;9.746;2022-10-16T11:14:26;24.00;58.80
16517;DHT22;8371;52.272;9.746;2022-10-16T11:17:00;24.00;59.00
16517;DHT22;8371;52.272;9.746;2022-10-16T11:19:47;24.10;58.60
16517;DHT22;8371;52.272;9.746;2022-10-16T11:22:29;24.10;58.60
16517;DHT22;8371;52.272;9.746;2022-10-16T11:25:04;24.10;58.60
16517;DHT22;8371;52.272;9.746;2022-10-16T11:27:39;24.10;57.90
16517;DHT22;8371;52.272;9.746;2022-10-16T11:30:24;24.20;58.00
16517;DHT22;8371;52.272;9.746;2022-10-16T11:33:24;24.20;58.30
16517;DHT22;8371;52.272;9.746;2022-10-16T11:36:23;24.20;58.20
16517;DHT22;8371;52.272;9.746;2022-10-16T11:41:45;24.30;57.80
16517;DHT22;8371;52.272;9.746;2022-10-16T11:49:33;24.40;57.70
16517;DHT22;8371;52.272;9.746;2022-10-16T11:52:26;24.40;57.60
16517;DHT22;8371;52.272;9.746;2022-10-16T11:57:28;24.50;57.20
16517;DHT22;8371;52.272;9.746;2022-10-16T12:02:48;24.60;56.90
16517;DHT22;8371;52.272;9.746;2022-10-16T12:07:55;24.60;57.40
16517;DHT22;8371;52.272;9.746;2022-10-16T12:10:22;24.70;56.70
16517;DHT22;8371;52.272;9.746;2022-10-16T12:12:49;24.60;56.50
16517;DHT22;8371;52.272;9.746;2022-10-16T12:15:26;24.70;56.10
16517;DHT22;8371;52.272;9.746;2022-10-16T12:17:53;24.70;56.00
16517;DHT22;8371;52.272;9.746;2022-10-16T12:20:25;24.70;56.00
16517;DHT22;8371;52.272;9.746;2022-10-16T12:22:56;24.70;56.00
16517;DHT22;8371;52.272;9.746;2022-10-16T12:25:26;24.70;55.90
16517;DHT22;8371;52.272;9.746;2022-10-16T12:30:31;24.70;55.30
16517;DHT22;8371;52.272;9.746;2022-10-16T12:33:00;24.70;55.30
16517;DHT22;8371;52.272;9.746;2022-10-16T12:35:32;24.70;54.70
16517;DHT22;8371;52.272;9.746;2022-10-16T12:38:07;24.70;55.30
16517;DHT22;8371;52.272;9.746;2022-10-16T12:40:36;24.70;55.50
16517;DHT22;8371;52.272;9.746;2022-10-16T12:45:58;24.70;54.50
16517;DHT22;8371;52.272;9.746;2022-10-16T12:48:21;24.80;54.90
16517;DHT22;8371;52.272;9.746;2022-10-16T12:50:47;24.70;55.00
16517;DHT22;8371;52.272;9.746;2022-10-16T12:53:22;24.70;55.00
16517;DHT22;8371;52.272;9.746;2022-10-16T12:58:41;24.70;54.80
16517;DHT22;8371;52.272;9.746;2022-10-16T13:01:10;24.70;54.60
16517;DHT22;8371;52.272;9.746;2022-10-16T13:03:44;24.70;54.80
16517;DHT22;8371;52.272;9.746;2022-10-16T13:06:38;24.70;54.80
16517;DHT22;8371;52.272;9.746;2022-10-16T13:09:07;24.70;54.80
16517;DHT22;8371;52.272;9.746;2022-10-16T13:17:16;24.60;54.40
16517;DHT22;8371;52.272;9.746;2022-10-16T13:19:55;24.50;54.90
16517;DHT22;8371;52.272;9.746;2022-10-16T13:22:24;24.50;54.40
16517;DHT22;8371;52.272;9.746;2022-10-16T13:24:55;24.50;54.40
16517;DHT22;8371;52.272;9.746;2022-10-16T13:30:30;24.50;54.60
16517;DHT22;8371;52.272;9.746;2022-10-16T13:32:30;24.50;54.40
16517;DHT22;8371;52.272;9.746;2022-10-16T13:34:56;24.50;54.40
16517;DHT22;8371;52.272;9.746;2022-10-16T13:37:23;24.50;53.70
16517;DHT22;8371;52.272;9.746;2022-10-16T13:39:49;24.50;54.00
16517;DHT22;8371;52.272;9.746;2022-10-16T13:42:26;24.50;54.00
16517;DHT22;8371;52.272;9.746;2022-10-16T13:44:54;24.50;53.90
16517;DHT22;8371;52.272;9.746;2022-10-16T13:47:28;24.50;53.60
16517;DHT22;8371;52.272;9.746;2022-10-16T13:50:12;24.50;53.50
16517;DHT22;8371;52.272;9.746;2022-10-16T13:52:38;24.40;53.40
16517;DHT22;8371;52.272;9.746;2022-10-16T13:55:17;24.30;53.30
16517;DHT22;8371;52.272;9.746;2022-10-16T13:57:40;24.30;53.30
16517;DHT22;8371;52.272;9.746;2022-10-16T14:00:21;24.10;53.20
16517;DHT22;8371;52.272;9.746;2022-10-16T14:02:53;24.00;53.10
16517;DHT22;8371;52.272;9.746;2022-10-16T14:05:19;23.90;53.40
16517;DHT22;8371;52.272;9.746;2022-10-16T14:07:48;23.70;53.20
16517;DHT22;8371;52.272;9.746;2022-10-16T14:10:32;23.60;53.30
16517;DHT22;8371;52.272;9.746;2022-10-16T14:13:06;23.50;54.10
16517;DHT22;8371;52.272;9.746;2022-10-16T14:15:34;23.40;53.60
16517;DHT22;8371;52.272;9.746;2022-10-16T14:18:01;23.30;53.70
16517;DHT22;8371;52.272;9.746;2022-10-16T14:20:32;23.20;54.00
16517;DHT22;8371;52.272;9.746;2022-10-16T14:23:01;23.20;54.10
16517;DHT22;8371;52.272;9.746;2022-10-16T14:25:30;23.20;54.30
16517;DHT22;8371;52.272;9.746;2022-10-16T14:28:25;23.20;54.10
16517;DHT22;8371;52.272;9.746;2022-10-16T14:30:34;23.20;54.80
16517;DHT22;8371;52.272;9.746;2022-10-16T14:33:05;23.20;54.10
16517;DHT22;8371;52.272;9.746;2022-10-16T14:35:38;23.20;54.20
16517;DHT22;8371;52.272;9.746;2022-10-16T14:38:06;23.20;54.00
16517;DHT22;8371;52.272;9.746;2022-10-16T14:40:35;23.20;54.00
16517;DHT22;8371;52.272;9.746;2022-10-16T14:43:02;23.20;54.10
16517;DHT22;8371;52.272;9.746;2022-10-16T14:45:31;23.20;54.10
16517;DHT22;8371;52.272;9.746;2022-10-16T14:47:58;23.30;54.10
16517;DHT22;8371;52.272;9.746;2022-10-16T14:50:25;23.30;54.20
16517;DHT22;8371;52.272;9.746;2022-10-16T14:52:51;23.30;54.10
16517;DHT22;8371;52.272;9.746;2022-10-16T14:55:17;23.40;54.00
16517;DHT22;8371;52.272;9.746;2022-10-16T14:57:44;23.40;53.90
16517;DHT22;8371;52.272;9.746;2022-10-16T15:00:22;23.40;53.90
16517;DHT22;8371;52.272;9.746;2022-10-16T15:02:49;23.40;53.80
16517;DHT22;8371;52.272;9.746;2022-10-16T15:05:24;23.40;53.90
16517;DHT22;8371;52.272;9.746;2022-10-16T15:07:48;23.50;53.80
16517;DHT22;8371;52.272;9.746;2022-10-16T15:10:16;23.40;53.70
16517;DHT22;8371;52.272;9.746;2022-10-16T15:12:42;23.50;53.70
16517;DHT22;8371;52.272;9.746;2022-10-16T15:17:54;23.50;53.60
16517;DHT22;8371;52.272;9.746;2022-10-16T15:20:29;23.40;53.40
16517;DHT22;8371;52.272;9.746;2022-10-16T15:22:56;23.40;53.40
16517;DHT22;8371;52.272;9.746;2022-10-16T15:28:02;23.30;53.40
16517;DHT22;8371;52.272;9.746;2022-10-16T15:30:29;23.20;53.30
16517;DHT22;8371;52.272;9.746;2022-10-16T15:32:55;23.20;53.40
16517;DHT22;8371;52.272;9.746;2022-10-16T15:35:21;23.10;53.40
16517;DHT22;8371;52.272;9.746;2022-10-16T15:37:47;23.00;53.50
16517;DHT22;8371;52.272;9.746;2022-10-16T15:40:15;22.90;53.50
16517;DHT22;8371;52.272;9.746;2022-10-16T15:42:40;22.80;53.50
16517;DHT22;8371;52.272;9.746;2022-10-16T15:45:08;22.70;53.50
16517;DHT22;8371;52.272;9.746;2022-10-16T15:47:34;22.50;53.50
16517;DHT22;8371;52.272;9.746;2022-10-16T15:50:00;22.40;53.50
16517;DHT22;8371;52.272;9.746;2022-10-16T15:52:26;22.30;53.50
16517;DHT22;8371;52.272;9.746;2022-10-16T15:54:51;22.10;53.60
16517;DHT22;8371;52.272;9.746;2022-10-16T15:57:17;21.90;53.60
16517;DHT22;8371;52.272;9.746;2022-10-16T15:59:43;21.80;53.70
16517;DHT22;8371;52.272;9.746;2022-10-16T16:02:09;21.60;53.80
16517;DHT22;8371;52.272;9.746;2022-10-16T16:04:35;21.50;54.00
16517;DHT22;8371;52.272;9.746;2022-10-16T16:07:01;21.30;54.10
16517;DHT22;8371;52.272;9.746;2022-10-16T16:09:29;21.20;54.20
16517;DHT22;8371;52.272;9.746;2022-10-16T16:11:54;21.10;54.30
16517;DHT22;8371;52.272;9.746;2022-10-16T16:14:20;21.00;54.50
16517;DHT22;8371;52.272;9.746;2022-10-16T16:16:46;20.90;54.60
16517;DHT22;8371;52.272;9.746;2022-10-16T16:19:12;20.80;54.60
16517;DHT22;8371;52.272;9.746;2022-10-16T16:21:38;20.60;54.70
16517;DHT22;8371;52.272;9.746;2022-10-16T16:24:04;20.50;54.70
16517;DHT22;8371;52.272;9.746;2022-10-16T16:26:32;20.40;54.80
16517;DHT22;8371;52.272;9.746;2022-10-16T16:28:59;20.30;54.90
16517;DHT22;8371;52.272;9.746;2022-10-16T16:31:27;20.10;55.00
16517;DHT22;8371;52.272;9.746;2022-10-16T16:33:53;20.00;55.10
16517;DHT22;8371;52.272;9.746;2022-10-16T16:36:19;19.80;55.20
16517;DHT22;8371;52.272;9.746;2022-10-16T16:38:45;19.70;55.30
16517;DHT22;8371;52.272;9.746;2022-10-16T16:41:13;19.50;55.40
16517;DHT22;8371;52.272;9.746;2022-10-16T16:43:39;19.40;55.60
16517;DHT22;8371;52.272;9.746;2022-10-16T16:46:05;19.30;55.70
16517;DHT22;8371;52.272;9.746;2022-10-16T16:48:31;19.20;55.90
16517;DHT22;8371;52.272;9.746;2022-10-16T16:51:07;19.00;56.00
16517;DHT22;8371;52.272;9.746;2022-10-16T16:53:33;18.90;56.10
16517;DHT22;8371;52.272;9.746;2022-10-16T16:56:04;18.80;56.20
16517;DHT22;8371;52.272;9.746;2022-10-16T16:58:31;18.70;56.40
16517;DHT22;8371;52.272;9.746;2022-10-16T17:00:57;18.50;56.60
16517;DHT22;8371;52.272;9.746;2022-10-16T17:03:32;18.40;56.90
16517;DHT22;8371;52.272;9.746;2022-10-16T17:06:08;18.40;57.70
16517;DHT22;8371;52.272;9.746;2022-10-16T17:08:35;18.30;57.90
16517;DHT22;8371;52.272;9.746;2022-10-16T17:11:01;18.20;57.40
16517;DHT22;8371;52.272;9.746;2022-10-16T17:13:30;18.10;57.50
16517;DHT22;8371;52.272;9.746;2022-10-16T17:15:56;18.10;57.70
16517;DHT22;8371;52.272;9.746;2022-10-16T17:18:23;18.10;57.80
16517;DHT22;8371;52.272;9.746;2022-10-16T17:20:50;18.00;57.90
16517;DHT22;8371;52.272;9.746;2022-10-16T17:23:17;18.10;58.10
16517;DHT22;8371;52.272;9.746;2022-10-16T17:25:45;18.00;58.00